Log in Register

Login to your account

Username *
Password *
Remember Me

Create an account

Fields marked with an asterisk (*) are required.
Name *
Username *
Password *
Verify password *
Email *
Verify email *

METAR/TAF de Chambéry

[source: ADDS]
METAR
LFLB 182030Z AUTO 13002KT 9999 ///TCU 16/15 Q1012 =
TAF LFLB 181400Z 1815/1915 36005KT CAVOK BECMG 1819/1821 VRB02KT TEMPO 1823/1904 4000 RA BKN020 BKN030TCU OVC050 PROB40 TEMPO 1823/1903 27015G30KT 2000 TSRA BKN011 SCT020CB PROB30 TEMPO 1900/1903 27025G50KT BECMG 1904/1906 16005KT 5000 -RA BKN040 TEMPO 1908/1915 4000 RA SCT020TCU BKN030
TAF
TAF LFLB 181400Z 1815/1915 36005KT CAVOK BECMG 1819/1821 VRB02KT TEMPO 1823/1904 4000 RA BKN020 BKN030TCU OVC050 PROB40 TEMPO 1823/1903 27015G30KT 2000 TSRA BKN011 SCT020CB PROB30 TEMPO 1900/1903 27025G50KT BECMG 1904/1906 16005KT 5000 -RA BKN040 TEMPO 1908/1915 4000 RA SCT020TCU BKN030 =
SR / SS: 05:18 / 17:42 UTC (Lever/Coucher du soleil le 2021-09-18)

 

Webcam de l'Aéroclub - Parking Lima et SW (réactualisation : 5min)

Cliquer ici pour une animation sur les 3 dernières heures / Cliquer sur l'image pour l'agrandir dans une nouvelle fenêtre

 

Webcam de l'Aéroclub - Manche à air et WA (réactualisation : 5min)

Cliquer ici pour une animation sur les 3 dernières heures / Cliquer sur l'image pour l'agrandir dans une nouvelle fenêtre

 

JSN Boot template designed by JoomlaShine.com